createdAt,value
2024-02-27T00:00:23.242Z,11.40
2024-02-27T00:03:10.920Z,9.20
2024-02-27T00:05:38.200Z,9.90
2024-02-27T00:08:05.865Z,9.70
2024-02-27T00:10:33.728Z,7.80
2024-02-27T00:13:02.694Z,8.00
2024-02-27T00:15:30.122Z,9.30
2024-02-27T00:17:59.816Z,8.70
2024-02-27T00:20:28.052Z,8.70
2024-02-27T00:22:55.796Z,8.10
2024-02-27T00:25:24.123Z,8.10
2024-02-27T00:27:51.580Z,8.20
2024-02-27T00:30:19.034Z,8.30
2024-02-27T00:32:46.586Z,7.90
2024-02-27T00:35:13.877Z,8.50
2024-02-27T00:37:41.178Z,8.40
2024-02-27T00:40:09.696Z,9.10
2024-02-27T00:42:37.155Z,7.90
2024-02-27T00:45:05.605Z,8.40
2024-02-27T00:47:33.443Z,7.90
2024-02-27T00:50:00.750Z,8.00
2024-02-27T00:52:28.147Z,7.70
2024-02-27T00:54:55.549Z,7.90
2024-02-27T00:57:22.935Z,8.00
2024-02-27T00:59:50.331Z,11.30
2024-02-27T01:02:18.006Z,7.40
2024-02-27T01:04:45.324Z,8.10
2024-02-27T01:07:12.773Z,7.60
2024-02-27T01:09:40.309Z,7.40
2024-02-27T01:12:08.317Z,7.00
2024-02-27T01:14:35.986Z,7.30
2024-02-27T01:17:03.586Z,7.60
2024-02-27T01:19:30.950Z,8.30
2024-02-27T01:22:02.617Z,6.90
2024-02-27T01:24:30.167Z,7.40
2024-02-27T01:26:57.545Z,7.40
2024-02-27T01:29:25.005Z,7.60
2024-02-27T01:31:54.454Z,9.60
2024-02-27T01:34:22.213Z,7.90
2024-02-27T01:36:49.551Z,7.50
2024-02-27T01:39:17.004Z,7.90
2024-02-27T01:41:48.763Z,7.80
2024-02-27T01:44:16.165Z,8.50
2024-02-27T01:46:43.968Z,7.90
2024-02-27T01:49:15.319Z,7.90
2024-02-27T01:51:44.762Z,8.20
2024-02-27T01:54:14.653Z,8.80
2024-02-27T01:56:42.146Z,8.30
2024-02-27T01:59:12.340Z,8.40
2024-02-27T02:01:41.023Z,9.10
2024-02-27T02:04:09.871Z,8.60
2024-02-27T02:06:37.766Z,9.00
2024-02-27T02:09:05.388Z,10.00
2024-02-27T02:11:32.770Z,9.70
2024-02-27T02:14:00.204Z,9.50
2024-02-27T02:16:27.670Z,8.80
2024-02-27T02:18:54.988Z,9.40
2024-02-27T02:21:24.873Z,9.00
2024-02-27T02:23:52.886Z,8.70
2024-02-27T02:26:20.569Z,9.80
2024-02-27T02:28:50.175Z,8.40
2024-02-27T02:31:17.854Z,8.80
2024-02-27T02:33:45.415Z,8.70
2024-02-27T02:36:13.228Z,9.60
2024-02-27T02:38:40.768Z,9.40
2024-02-27T02:41:08.015Z,10.10
2024-02-27T02:43:35.598Z,9.10
2024-02-27T02:46:02.985Z,10.00
2024-02-27T02:48:30.314Z,9.40
2024-02-27T02:50:57.948Z,10.10
2024-02-27T02:53:25.311Z,10.50
2024-02-27T02:55:52.535Z,10.50
2024-02-27T02:58:20.148Z,10.00
2024-02-27T03:00:49.630Z,9.80
2024-02-27T03:03:16.946Z,10.10
2024-02-27T03:05:44.755Z,10.20
2024-02-27T03:08:12.306Z,9.70
2024-02-27T03:10:39.645Z,10.00
2024-02-27T03:13:09.752Z,10.40
2024-02-27T03:15:37.405Z,10.90
2024-02-27T03:18:05.299Z,10.80
2024-02-27T03:20:32.808Z,10.80
2024-02-27T03:23:00.096Z,10.80
2024-02-27T03:25:27.341Z,12.00
2024-02-27T03:27:54.845Z,11.00
2024-02-27T03:30:22.382Z,12.60
2024-02-27T03:32:49.643Z,13.90
2024-02-27T03:35:17.474Z,12.00
2024-02-27T03:37:45.213Z,12.10
2024-02-27T03:40:12.571Z,12.10
2024-02-27T03:42:40.857Z,12.00
2024-02-27T03:45:11.729Z,14.10
2024-02-27T03:47:39.090Z,12.20
2024-02-27T03:50:07.074Z,13.20
2024-02-27T03:52:34.371Z,11.50
2024-02-27T03:55:01.648Z,11.70
2024-02-27T03:57:29.254Z,11.10
2024-02-27T03:59:56.961Z,11.00
2024-02-27T04:02:24.250Z,11.90
2024-02-27T04:04:51.979Z,11.20
2024-02-27T04:07:19.256Z,11.40
2024-02-27T04:09:46.586Z,11.20
2024-02-27T04:12:14.097Z,12.30
2024-02-27T04:14:41.656Z,12.90
2024-02-27T04:17:08.889Z,11.00
2024-02-27T04:19:36.594Z,11.70
2024-02-27T04:22:04.050Z,11.00
2024-02-27T04:24:31.692Z,11.80
2024-02-27T04:26:59.196Z,11.50
2024-02-27T04:29:26.613Z,11.50
2024-02-27T04:31:54.241Z,10.70
2024-02-27T04:34:24.061Z,11.30
2024-02-27T04:36:51.438Z,10.90
2024-02-27T04:39:18.745Z,11.30
2024-02-27T04:41:46.459Z,11.60
2024-02-27T04:44:13.846Z,11.10
2024-02-27T04:46:41.463Z,10.90
2024-02-27T04:49:08.841Z,11.50
2024-02-27T04:51:36.988Z,12.80
2024-02-27T04:54:05.171Z,11.40
2024-02-27T04:56:34.887Z,12.50
2024-02-27T04:59:02.177Z,11.80
2024-02-27T05:01:29.493Z,13.00
2024-02-27T05:03:57.437Z,11.40
2024-02-27T05:06:24.909Z,11.40
2024-02-27T05:08:52.328Z,11.40
2024-02-27T05:11:21.964Z,11.30
2024-02-27T05:13:49.910Z,11.30
2024-02-27T05:16:17.175Z,11.30
2024-02-27T05:18:44.647Z,11.70
2024-02-27T05:21:12.166Z,11.00
2024-02-27T05:23:39.541Z,12.00
2024-02-27T05:26:09.168Z,12.20
2024-02-27T05:28:37.728Z,12.20
2024-02-27T05:31:27.905Z,11.00
2024-02-27T05:33:56.412Z,15.70
2024-02-27T05:36:24.981Z,13.30
2024-02-27T05:38:52.923Z,11.50
2024-02-27T05:41:20.293Z,12.10
2024-02-27T05:43:48.665Z,10.70
2024-02-27T05:46:16.244Z,11.00
2024-02-27T05:48:44.049Z,10.80
2024-02-27T05:51:11.509Z,11.30
2024-02-27T05:53:39.443Z,10.60
2024-02-27T05:56:07.253Z,11.70
2024-02-27T05:58:34.509Z,11.70
2024-02-27T06:01:02.023Z,10.90
2024-02-27T06:03:29.899Z,11.50
2024-02-27T06:05:57.555Z,11.70
2024-02-27T06:08:26.696Z,10.60
2024-02-27T06:10:56.358Z,11.50
2024-02-27T06:13:23.593Z,11.90
2024-02-27T06:15:51.216Z,11.80
2024-02-27T06:18:18.799Z,12.40
2024-02-27T06:21:04.898Z,11.70
2024-02-27T06:23:36.660Z,11.20
2024-02-27T06:26:04.226Z,10.50
2024-02-27T06:28:33.731Z,10.90
2024-02-27T06:31:01.279Z,11.00
2024-02-27T06:33:28.780Z,11.60
2024-02-27T06:35:56.181Z,11.30
2024-02-27T06:38:23.616Z,11.40
2024-02-27T06:40:50.937Z,12.50
2024-02-27T06:46:11.983Z,12.70
2024-02-27T06:58:12.765Z,16.40
2024-02-27T07:18:32.983Z,14.50
2024-02-27T07:38:54.622Z,15.40
2024-02-27T10:44:42.816Z,10.10
2024-02-27T10:47:28.194Z,10.70
2024-02-27T11:00:05.369Z,11.80
2024-02-27T11:03:00.709Z,10.50
2024-02-27T11:06:14.612Z,9.50
2024-02-27T11:09:12.997Z,9.70
2024-02-27T11:19:42.126Z,11.10
2024-02-27T11:23:00.350Z,11.50
2024-02-27T11:26:02.599Z,12.20
2024-02-27T11:43:45.766Z,10.50
2024-02-27T11:49:52.331Z,11.00
2024-02-27T12:04:53.736Z,9.70
2024-02-27T12:14:33.751Z,9.00
2024-02-27T12:17:01.516Z,8.70
2024-02-27T12:24:50.572Z,9.00
2024-02-27T12:30:10.999Z,8.70
2024-02-27T12:40:29.538Z,8.50
2024-02-27T12:54:21.900Z,8.10
2024-02-27T12:58:18.020Z,7.10
2024-02-27T13:01:43.245Z,6.90
2024-02-27T13:16:00.863Z,7.20
2024-02-27T13:24:53.800Z,8.10
2024-02-27T13:27:22.320Z,7.60
2024-02-27T13:29:55.396Z,6.90
2024-02-27T13:32:42.749Z,7.30
2024-02-27T13:35:34.246Z,7.30
2024-02-27T13:42:07.200Z,25.60
2024-02-27T13:44:34.936Z,8.50
2024-02-27T13:47:02.941Z,7.50
2024-02-27T13:49:30.097Z,6.30
2024-02-27T13:51:57.423Z,7.30
2024-02-27T13:54:24.515Z,13.70
2024-02-27T13:56:51.764Z,11.90
2024-02-27T13:59:19.209Z,9.00
2024-02-27T14:01:46.872Z,14.00
2024-02-27T14:04:14.349Z,9.50
2024-02-27T14:06:42.067Z,7.30
2024-02-27T14:09:09.469Z,7.40
2024-02-27T14:11:39.838Z,11.80
2024-02-27T14:14:13.949Z,14.60
2024-02-27T14:16:44.843Z,19.60
2024-02-27T14:19:12.725Z,17.90
2024-02-27T14:21:39.961Z,15.20
2024-02-27T14:24:09.082Z,10.50
2024-02-27T14:26:36.402Z,7.00
2024-02-27T14:29:06.033Z,9.80
2024-02-27T14:31:33.632Z,9.30
2024-02-27T14:34:01.589Z,8.00
2024-02-27T14:36:28.866Z,11.60
2024-02-27T14:38:55.993Z,6.10
2024-02-27T14:41:23.449Z,7.00
2024-02-27T14:43:50.293Z,8.50
2024-02-27T14:46:17.454Z,8.50
2024-02-27T14:48:44.657Z,11.30
2024-02-27T14:51:11.742Z,8.70
2024-02-27T14:53:38.753Z,8.20
2024-02-27T14:56:06.141Z,8.20
2024-02-27T14:58:33.032Z,7.70
2024-02-27T15:01:06.901Z,8.50
2024-02-27T15:03:36.509Z,8.50
2024-02-27T15:06:08.374Z,11.30
2024-02-27T15:08:35.237Z,12.40
2024-02-27T15:11:03.046Z,9.30
2024-02-27T15:13:30.625Z,9.10
2024-02-27T15:16:04.869Z,8.90
2024-02-27T15:18:32.130Z,9.20
2024-02-27T15:20:59.334Z,20.40
2024-02-27T15:23:26.402Z,11.90
2024-02-27T15:25:54.230Z,25.80
2024-02-27T15:28:21.622Z,26.40
2024-02-27T15:30:51.670Z,22.30
2024-02-27T15:33:19.290Z,13.20
2024-02-27T15:35:46.356Z,12.40
2024-02-27T15:38:14.076Z,20.20
2024-02-27T15:40:41.112Z,18.30
2024-02-27T15:43:13.633Z,16.50
2024-02-27T15:45:42.072Z,14.20
2024-02-27T15:48:11.607Z,11.20
2024-02-27T15:50:38.809Z,13.10
2024-02-27T15:53:07.938Z,14.30
2024-02-27T15:55:38.868Z,17.70
2024-02-27T15:58:06.653Z,12.20
2024-02-27T16:00:34.478Z,10.90
2024-02-27T16:03:11.885Z,11.30
2024-02-27T16:05:40.323Z,10.80
2024-02-27T16:08:09.709Z,9.60
2024-02-27T16:10:37.069Z,9.90
2024-02-27T16:13:08.886Z,8.80
2024-02-27T16:18:47.927Z,13.70
2024-02-27T16:21:19.241Z,9.30
2024-02-27T16:24:41.469Z,11.20
2024-02-27T16:27:09.763Z,10.90
2024-02-27T16:29:43.142Z,11.30
2024-02-27T16:32:10.484Z,9.60
2024-02-27T16:34:37.584Z,12.30
2024-02-27T16:37:07.727Z,11.30
2024-02-27T16:39:35.009Z,9.90
2024-02-27T16:42:01.851Z,12.40
2024-02-27T16:44:29.228Z,7.10
2024-02-27T16:46:56.454Z,6.20
2024-02-27T16:49:23.427Z,8.20
2024-02-27T16:51:50.597Z,10.40
2024-02-27T16:54:17.718Z,8.70
2024-02-27T16:56:45.070Z,9.30
2024-02-27T16:59:14.984Z,7.20
2024-02-27T17:01:42.712Z,10.20
2024-02-27T17:04:09.570Z,13.60
2024-02-27T17:06:40.862Z,8.50
2024-02-27T17:09:09.910Z,9.60
2024-02-27T17:11:36.788Z,9.40
2024-02-27T17:14:06.968Z,14.50
2024-02-27T17:16:34.081Z,13.70
2024-02-27T17:19:01.383Z,14.20
2024-02-27T17:21:28.862Z,12.70
2024-02-27T17:23:56.099Z,12.90
2024-02-27T17:26:26.162Z,13.00
2024-02-27T17:28:53.240Z,12.10
2024-02-27T17:31:20.387Z,12.80
2024-02-27T17:33:47.530Z,13.60
2024-02-27T17:36:17.460Z,14.00
2024-02-27T17:38:44.875Z,12.90
2024-02-27T17:41:12.189Z,13.50
2024-02-27T17:43:39.100Z,12.70
2024-02-27T17:46:07.543Z,14.10
2024-02-27T17:48:37.966Z,13.90
2024-02-27T17:51:05.423Z,10.90
2024-02-27T17:53:32.329Z,12.40
2024-02-27T17:56:01.835Z,9.70
2024-02-27T17:58:28.996Z,12.10
2024-02-27T18:00:56.435Z,11.50
2024-02-27T18:03:25.338Z,14.90
2024-02-27T18:05:53.619Z,14.50
2024-02-27T18:08:20.765Z,17.40
2024-02-27T18:10:47.695Z,13.50
2024-02-27T18:13:14.824Z,15.30
2024-02-27T18:15:45.140Z,16.00
2024-02-27T18:18:12.297Z,10.70
2024-02-27T18:20:39.629Z,12.20
2024-02-27T18:23:10.361Z,12.80
2024-02-27T18:25:39.408Z,10.00
2024-02-27T18:54:29.512Z,8.90
2024-02-27T18:56:56.321Z,8.90
2024-02-27T18:59:22.983Z,8.90
2024-02-27T19:01:49.863Z,9.90
2024-02-27T19:04:56.276Z,9.80
2024-02-27T19:07:23.360Z,11.00
2024-02-27T19:09:51.203Z,9.30
2024-02-27T19:12:18.426Z,9.20
2024-02-27T19:14:45.534Z,9.90
2024-02-27T19:17:12.417Z,9.30
2024-02-27T19:19:39.220Z,9.10
2024-02-27T19:22:06.098Z,9.80
2024-02-27T19:24:33.216Z,10.30
2024-02-27T19:27:16.409Z,9.20
2024-02-27T19:29:43.212Z,9.30
2024-02-27T19:32:11.541Z,8.30
2024-02-27T19:34:38.694Z,8.30
2024-02-27T19:40:41.264Z,8.40
2024-02-27T19:43:08.586Z,8.70
2024-02-27T19:45:36.290Z,8.00
2024-02-27T19:55:52.641Z,9.70
2024-02-27T19:58:22.223Z,10.30
2024-02-27T20:00:52.009Z,9.90
2024-02-27T20:03:42.890Z,9.10
2024-02-27T20:06:13.541Z,9.30
2024-02-27T20:08:40.740Z,9.40
2024-02-27T20:11:08.646Z,9.70
2024-02-27T20:13:35.874Z,8.80
2024-02-27T20:16:05.741Z,9.30
2024-02-27T20:18:37.101Z,9.20
2024-02-27T20:21:05.586Z,9.80
2024-02-27T20:23:33.497Z,8.60
2024-02-27T20:26:06.138Z,12.20
2024-02-27T20:28:33.273Z,9.20
2024-02-27T20:31:00.361Z,9.90
2024-02-27T20:33:29.860Z,11.10
2024-02-27T20:35:56.799Z,9.30
2024-02-27T20:38:23.690Z,8.90
2024-02-27T20:40:50.841Z,8.40
2024-02-27T20:43:18.044Z,8.90
2024-02-27T20:45:44.926Z,8.70
2024-02-27T20:48:12.598Z,9.30
2024-02-27T20:50:39.615Z,8.70
2024-02-27T20:53:07.835Z,8.80
2024-02-27T20:55:34.796Z,9.50
2024-02-27T20:58:01.902Z,9.10
2024-02-27T21:00:28.872Z,9.20
2024-02-27T21:02:55.959Z,9.00
2024-02-27T21:05:22.965Z,9.80
2024-02-27T21:07:49.857Z,9.50
2024-02-27T21:10:17.294Z,8.90
2024-02-27T21:12:44.281Z,9.10
2024-02-27T21:15:11.344Z,9.10
2024-02-27T21:17:38.513Z,10.70
2024-02-27T21:20:07.297Z,9.80
2024-02-27T21:22:34.601Z,9.50
2024-02-27T21:25:01.798Z,9.40
2024-02-27T21:27:28.812Z,9.30
2024-02-27T21:29:55.623Z,10.50
2024-02-27T21:32:23.662Z,10.60
2024-02-27T21:34:50.655Z,9.90
2024-02-27T21:37:17.498Z,10.30
2024-02-27T21:39:44.458Z,10.70
2024-02-27T21:42:11.386Z,10.50
2024-02-27T21:44:38.195Z,10.70
2024-02-27T21:47:05.387Z,10.30
2024-02-27T21:49:32.395Z,11.00
2024-02-27T21:52:03.360Z,11.40
2024-02-27T21:54:31.447Z,11.20
2024-02-27T21:56:58.380Z,12.10
2024-02-27T21:59:25.279Z,11.00
2024-02-27T22:01:54.889Z,11.80
2024-02-27T22:04:21.862Z,12.00
2024-02-27T22:06:48.557Z,12.30
2024-02-27T22:09:15.513Z,11.30
2024-02-27T22:11:42.261Z,11.30
2024-02-27T22:14:11.779Z,11.50
2024-02-27T22:16:39.686Z,11.50
2024-02-27T22:19:07.212Z,11.50
2024-02-27T22:21:34.472Z,11.50
2024-02-27T22:24:01.823Z,11.60
2024-02-27T22:26:28.715Z,11.60
2024-02-27T22:28:55.693Z,12.10
2024-02-27T22:31:24.215Z,11.60
2024-02-27T22:33:51.137Z,11.70
2024-02-27T22:36:18.184Z,11.70
2024-02-27T22:38:45.234Z,11.90
2024-02-27T22:41:12.296Z,11.80
2024-02-27T22:43:39.344Z,12.20
2024-02-27T22:46:07.452Z,11.90
2024-02-27T22:48:34.345Z,11.60
2024-02-27T22:51:01.101Z,11.40
2024-02-27T22:53:27.956Z,11.20
2024-02-27T22:55:54.680Z,11.40
2024-02-27T22:58:21.568Z,12.80
2024-02-27T23:00:48.771Z,12.00
2024-02-27T23:03:15.831Z,11.80
2024-02-27T23:05:42.613Z,11.80
2024-02-27T23:08:12.061Z,11.70
2024-02-27T23:10:39.075Z,12.00
2024-02-27T23:13:07.606Z,12.10
2024-02-27T23:15:35.421Z,11.80
2024-02-27T23:18:02.996Z,11.40
2024-02-27T23:20:30.101Z,11.70
2024-02-27T23:22:57.352Z,10.50
2024-02-27T23:25:24.382Z,10.80
2024-02-27T23:27:51.464Z,10.20
2024-02-27T23:30:18.814Z,9.60
2024-02-27T23:32:45.975Z,9.60
2024-02-27T23:35:12.776Z,10.50
2024-02-27T23:37:46.034Z,9.40
2024-02-27T23:40:13.317Z,8.40
2024-02-27T23:42:40.344Z,9.80
2024-02-27T23:45:07.627Z,8.10
2024-02-27T23:47:34.830Z,9.00
2024-02-27T23:50:02.232Z,8.70
2024-02-27T23:52:29.884Z,9.90
2024-02-27T23:54:56.972Z,8.60
2024-02-27T23:57:23.831Z,9.10
2024-02-27T23:59:52.406Z,9.80
